createdAt,value
2018-05-15T00:04:36.763Z,4.53
2018-05-15T00:09:38.879Z,3.90
2018-05-15T00:14:40.196Z,3.53
2018-05-15T00:19:41.590Z,4.30
2018-05-15T00:24:42.882Z,4.70
2018-05-15T00:29:44.183Z,4.50
2018-05-15T00:34:46.216Z,4.47
2018-05-15T00:39:47.526Z,4.67
2018-05-15T00:44:48.853Z,4.20
2018-05-15T00:49:50.150Z,4.30
2018-05-15T01:00:38.590Z,4.03
2018-05-15T01:05:39.897Z,5.00
2018-05-15T01:10:41.950Z,4.60
2018-05-15T01:15:43.244Z,4.50
2018-05-15T01:20:44.549Z,4.60
2018-05-15T01:25:45.923Z,5.30
2018-05-15T01:30:47.921Z,5.40
2018-05-15T01:35:49.217Z,5.13
2018-05-15T01:40:50.510Z,4.90
2018-05-15T01:45:51.830Z,5.00
2018-05-15T01:50:53.141Z,5.27
2018-05-15T01:55:55.189Z,5.20
2018-05-15T02:00:56.477Z,6.53
2018-05-15T02:05:57.828Z,6.40
2018-05-15T02:10:59.877Z,5.50
2018-05-15T02:16:01.194Z,5.77
2018-05-15T02:21:02.512Z,6.00
2018-05-15T02:26:04.634Z,5.20
2018-05-15T02:31:05.970Z,5.70
2018-05-15T02:36:07.290Z,6.00
2018-05-15T02:41:09.345Z,6.80
2018-05-15T02:46:10.675Z,6.37
2018-05-15T02:51:11.991Z,5.40
2018-05-15T02:56:13.294Z,5.97
2018-05-15T03:01:14.584Z,5.80
2018-05-15T03:06:15.929Z,6.13
2018-05-15T03:11:17.231Z,6.20
2018-05-15T03:16:19.282Z,6.00
2018-05-15T03:21:20.587Z,6.00
2018-05-15T03:26:21.906Z,6.60
2018-05-15T03:31:23.214Z,6.10
2018-05-15T03:36:24.509Z,6.40
2018-05-15T03:41:25.858Z,6.80
2018-05-15T03:46:27.175Z,5.73
2018-05-15T03:51:29.270Z,5.50
2018-05-15T03:56:30.578Z,5.47
2018-05-15T04:01:51.125Z,6.40
2018-05-15T04:07:11.535Z,6.20
2018-05-15T04:12:12.825Z,5.57
2018-05-15T04:17:14.105Z,6.33
2018-05-15T04:22:15.498Z,5.50
2018-05-15T04:27:17.193Z,5.30
2018-05-15T04:32:19.277Z,6.03
2018-05-15T04:37:21.473Z,5.90
2018-05-15T04:42:22.813Z,6.10
2018-05-15T04:47:25.810Z,5.50
2018-05-15T04:52:27.178Z,7.00
2018-05-15T04:57:28.485Z,6.27
2018-05-15T05:02:29.848Z,6.23
2018-05-15T05:07:31.183Z,6.30
2018-05-15T05:12:32.486Z,6.83
2018-05-15T05:17:34.562Z,6.70
2018-05-15T05:22:35.974Z,6.10
2018-05-15T05:27:37.382Z,6.13
2018-05-15T05:32:39.442Z,6.63
2018-05-15T05:37:40.763Z,7.20
2018-05-15T05:42:42.078Z,5.60
2018-05-15T05:47:44.121Z,6.87
2018-05-15T05:52:45.418Z,6.37
2018-05-15T05:57:46.734Z,6.90
2018-05-15T06:02:48.058Z,7.53
2018-05-15T06:07:49.388Z,7.20
2018-05-15T06:12:50.704Z,7.57
2018-05-15T06:17:52.046Z,7.87
2018-05-15T06:22:53.338Z,6.77
2018-05-15T06:27:54.658Z,6.73
2018-05-15T06:32:55.970Z,7.47
2018-05-15T06:37:57.999Z,7.20
2018-05-15T06:42:59.309Z,7.73
2018-05-15T06:48:00.606Z,7.37
2018-05-15T06:53:01.995Z,7.27
2018-05-15T06:58:03.247Z,6.57
2018-05-15T07:03:04.569Z,6.63
2018-05-15T07:08:05.894Z,6.90
2018-05-15T07:13:07.218Z,7.77
2018-05-15T07:18:08.534Z,7.03
2018-05-15T07:23:09.865Z,6.23
2018-05-15T07:28:11.162Z,7.37
2018-05-15T07:33:13.266Z,7.70
2018-05-15T07:38:14.523Z,7.77
2018-05-15T07:43:15.827Z,7.30
2018-05-15T07:48:17.903Z,7.13
2018-05-15T07:53:19.233Z,7.23
2018-05-15T07:58:20.538Z,7.17
2018-05-15T08:03:22.613Z,6.73
2018-05-15T08:08:23.913Z,5.87
2018-05-15T08:13:25.229Z,6.07
2018-05-15T08:18:27.292Z,5.57
2018-05-15T08:23:28.594Z,6.67
2018-05-15T08:28:29.905Z,6.10
2018-05-15T08:33:31.945Z,6.17
2018-05-15T08:38:33.254Z,6.00
2018-05-15T08:43:34.570Z,7.93
2018-05-15T08:48:37.681Z,6.67
2018-05-15T08:53:39.023Z,5.90
2018-05-15T08:58:41.057Z,5.63
2018-05-15T09:03:42.386Z,6.20
2018-05-15T09:08:43.701Z,6.10
2018-05-15T09:13:45.750Z,6.37
2018-05-15T09:18:47.082Z,5.53
2018-05-15T09:23:49.187Z,6.00
2018-05-15T09:28:51.252Z,4.97
2018-05-15T09:33:52.767Z,6.67
2018-05-15T09:38:54.078Z,8.63
2018-05-15T09:43:56.154Z,7.60
2018-05-15T09:48:57.469Z,6.30
2018-05-15T09:53:59.522Z,6.47
2018-05-15T09:59:00.833Z,5.50
2018-05-15T10:04:02.174Z,5.73
2018-05-15T10:09:03.513Z,4.57
2018-05-15T10:14:04.919Z,5.50
2018-05-15T10:19:06.926Z,5.50
2018-05-15T10:24:08.243Z,4.83
2018-05-15T10:29:10.294Z,5.27
2018-05-15T10:34:11.612Z,4.60
2018-05-15T10:39:12.947Z,4.90
2018-05-15T10:44:14.254Z,4.70
2018-05-15T10:49:15.573Z,5.27
2018-05-15T10:54:16.878Z,4.90
2018-05-15T10:59:18.929Z,5.37
2018-05-15T11:04:20.244Z,6.30
2018-05-15T11:09:21.555Z,5.50
2018-05-15T11:14:22.858Z,5.30
2018-05-15T11:19:43.290Z,4.77
2018-05-15T11:24:51.217Z,4.90
2018-05-15T11:29:52.518Z,4.90
2018-05-15T11:34:53.834Z,5.00
2018-05-15T11:39:55.141Z,5.17
2018-05-15T11:44:56.443Z,4.70
2018-05-15T11:49:58.400Z,5.23
2018-05-15T11:54:59.856Z,5.80
2018-05-15T12:00:01.353Z,5.30
2018-05-15T12:05:02.553Z,4.60
2018-05-15T12:10:03.874Z,5.80
2018-05-15T12:15:05.278Z,4.60
2018-05-15T12:20:06.526Z,4.87
2018-05-15T12:25:07.822Z,4.90
2018-05-15T12:30:09.885Z,4.80
2018-05-15T12:35:11.178Z,4.27
2018-05-15T12:40:12.495Z,6.03
2018-05-15T12:45:13.810Z,4.80
2018-05-15T12:50:15.862Z,4.50
2018-05-15T12:55:17.185Z,4.50
2018-05-15T13:00:18.516Z,5.10
2018-05-15T13:05:19.862Z,4.70
2018-05-15T13:10:21.191Z,4.40
2018-05-15T13:15:22.521Z,4.07
2018-05-15T13:20:23.838Z,4.13
2018-05-15T13:25:25.888Z,4.47
2018-05-15T13:30:27.182Z,4.40
2018-05-15T13:35:28.582Z,4.53
2018-05-15T13:40:30.576Z,5.00
2018-05-15T13:45:31.898Z,5.37
2018-05-15T13:50:33.247Z,5.10
2018-05-15T13:55:35.250Z,4.53
2018-05-15T14:00:36.545Z,4.47
2018-05-15T14:05:37.886Z,7.97
2018-05-15T14:10:39.917Z,8.60
2018-05-15T14:15:41.220Z,7.47
2018-05-15T14:20:42.526Z,7.13
2018-05-15T14:25:43.843Z,5.77
2018-05-15T14:30:45.155Z,5.20
2018-05-15T14:35:46.466Z,4.50
2018-05-15T14:40:47.845Z,4.30
2018-05-15T14:45:49.178Z,4.00
2018-05-15T14:56:50.793Z,3.90
2018-05-15T15:01:52.111Z,4.43
2018-05-15T15:06:53.466Z,4.37
2018-05-15T15:11:55.532Z,3.90
2018-05-15T15:16:56.839Z,4.00
2018-05-15T15:21:58.138Z,4.10
2018-05-15T15:26:59.431Z,4.23
2018-05-15T15:32:01.564Z,4.50
2018-05-15T15:37:02.801Z,4.43
2018-05-15T15:42:04.110Z,3.80
2018-05-15T15:47:05.428Z,4.50
2018-05-15T15:52:06.795Z,4.37
2018-05-15T15:57:08.866Z,4.10
2018-05-15T16:02:10.199Z,4.53
2018-05-15T16:07:12.266Z,4.10
2018-05-15T16:12:13.726Z,4.10
2018-05-15T16:17:15.070Z,3.70
2018-05-15T16:22:16.510Z,4.17
2018-05-15T16:27:18.006Z,4.20
2018-05-15T16:32:19.375Z,3.90
2018-05-15T16:37:20.710Z,4.40
2018-05-15T16:42:22.043Z,4.80
2018-05-15T16:47:24.168Z,3.87
2018-05-15T16:52:25.427Z,4.30
2018-05-15T16:57:27.477Z,4.10
2018-05-15T17:02:28.785Z,4.30
2018-05-15T17:07:30.107Z,4.50
2018-05-15T17:12:32.172Z,4.40
2018-05-15T17:17:33.470Z,4.20
2018-05-15T17:22:34.771Z,4.10
2018-05-15T17:27:36.264Z,4.33
2018-05-15T17:32:38.170Z,4.43
2018-05-15T17:37:39.558Z,4.13
2018-05-15T17:42:40.891Z,4.37
2018-05-15T17:47:43.179Z,4.20
2018-05-15T17:52:44.649Z,4.40
2018-05-15T17:57:45.925Z,4.37
2018-05-15T18:02:48.274Z,4.10
2018-05-15T18:07:49.822Z,4.53
2018-05-15T18:12:51.406Z,4.83
2018-05-15T18:17:53.664Z,4.50
2018-05-15T18:22:55.350Z,4.93
2018-05-15T18:27:56.797Z,4.30
2018-05-15T18:32:58.164Z,4.43
2018-05-15T18:38:00.009Z,4.33
2018-05-15T18:43:01.362Z,4.43
2018-05-15T18:48:02.698Z,3.90
2018-05-15T18:53:04.368Z,4.60
2018-05-15T18:58:05.886Z,4.53
2018-05-15T19:03:07.235Z,4.60
2018-05-15T19:08:08.829Z,5.00
2018-05-15T19:13:10.378Z,4.80
2018-05-15T19:18:11.698Z,5.50
2018-05-15T19:23:13.805Z,4.60
2018-05-15T19:28:16.547Z,4.77
2018-05-15T19:33:24.094Z,4.40
2018-05-15T19:38:25.551Z,4.37
2018-05-15T19:43:26.875Z,4.23
2018-05-15T19:48:28.197Z,4.70
2018-05-15T19:53:29.530Z,4.03
2018-05-15T19:58:31.640Z,5.17
2018-05-15T20:03:34.239Z,5.10
2018-05-15T20:08:35.663Z,4.53
2018-05-15T20:13:37.089Z,4.70
2018-05-15T20:18:38.481Z,4.80
2018-05-15T20:23:40.551Z,5.20
2018-05-15T20:28:42.672Z,5.07
2018-05-15T20:33:44.021Z,5.07
2018-05-15T20:38:45.974Z,4.97
2018-05-15T20:43:47.337Z,6.33
2018-05-15T20:48:49.772Z,5.50
2018-05-15T20:53:51.760Z,4.73
2018-05-15T20:58:54.103Z,5.43
2018-05-15T21:03:57.141Z,5.37
2018-05-15T21:08:59.809Z,5.90
2018-05-15T21:14:01.950Z,6.03
2018-05-15T21:19:04.078Z,5.83
2018-05-15T21:24:06.726Z,5.57
2018-05-15T21:29:08.661Z,5.63
2018-05-15T21:34:10.399Z,5.40
2018-05-15T21:39:11.750Z,5.60
2018-05-15T21:44:15.544Z,5.13
2018-05-15T21:49:17.490Z,5.77
2018-05-15T21:54:19.567Z,5.53
2018-05-15T21:59:21.816Z,5.70
2018-05-15T22:04:23.956Z,5.83
2018-05-15T22:09:26.364Z,6.13
2018-05-15T22:14:46.198Z,6.13
2018-05-15T22:20:06.134Z,6.57
2018-05-15T22:25:07.450Z,6.43
2018-05-15T22:30:08.770Z,6.90
2018-05-15T22:35:10.815Z,7.00
2018-05-15T22:40:12.138Z,7.13
2018-05-15T22:45:13.466Z,7.33
2018-05-15T22:50:14.973Z,8.17
2018-05-15T22:55:16.294Z,7.80
2018-05-15T23:00:17.598Z,6.90
2018-05-15T23:05:18.945Z,7.70
2018-05-15T23:10:20.266Z,8.57
2018-05-15T23:15:21.622Z,7.90
2018-05-15T23:20:22.946Z,7.90
2018-05-15T23:25:24.246Z,7.40
2018-05-15T23:30:25.555Z,7.60
2018-05-15T23:35:27.629Z,7.67
2018-05-15T23:40:28.954Z,8.13
2018-05-15T23:45:31.021Z,8.00
2018-05-15T23:50:32.376Z,8.00
2018-05-15T23:55:33.685Z,8.77
